createdAt,value
2022-11-24T00:00:11.754Z,110.82
2022-11-24T00:03:00.798Z,112.28
2022-11-24T00:05:28.790Z,104.60
2022-11-24T00:07:56.955Z,109.97
2022-11-24T00:10:25.055Z,115.68
2022-11-24T00:12:52.978Z,104.25
2022-11-24T00:15:20.620Z,123.45
2022-11-24T00:17:48.929Z,119.55
2022-11-24T00:20:17.508Z,105.20
2022-11-24T00:22:45.420Z,113.28
2022-11-24T00:25:13.343Z,114.93
2022-11-24T00:27:41.754Z,111.93
2022-11-24T00:30:10.145Z,109.43
2022-11-24T00:32:38.076Z,106.65
2022-11-24T00:35:09.381Z,122.80
2022-11-24T00:40:05.765Z,97.72
2022-11-24T00:42:33.938Z,89.72
2022-11-24T00:45:10.336Z,91.60
2022-11-24T00:47:41.853Z,100.40
2022-11-24T00:50:10.431Z,94.72
2022-11-24T00:52:38.625Z,102.15
2022-11-24T00:55:06.485Z,93.97
2022-11-24T00:57:35.862Z,96.82
2022-11-24T01:00:04.094Z,290.83
2022-11-24T01:02:32.342Z,89.78
2022-11-24T01:05:00.359Z,88.28
2022-11-24T01:07:28.237Z,99.53
2022-11-24T01:09:55.916Z,89.72
2022-11-24T01:12:23.814Z,93.50
2022-11-24T01:14:51.431Z,88.50
2022-11-24T01:17:19.437Z,88.10
2022-11-24T01:19:51.179Z,94.50
2022-11-24T01:22:19.154Z,86.00
2022-11-24T01:24:47.138Z,91.95
2022-11-24T01:27:15.070Z,87.90
2022-11-24T01:29:42.792Z,95.38
2022-11-24T01:32:10.894Z,89.93
2022-11-24T01:34:38.792Z,90.75
2022-11-24T01:37:06.896Z,93.38
2022-11-24T01:39:34.530Z,89.40
2022-11-24T01:42:02.835Z,88.32
2022-11-24T01:44:32.789Z,84.95
2022-11-24T01:47:18.635Z,84.78
2022-11-24T01:49:58.930Z,93.53
2022-11-24T01:52:34.416Z,92.38
2022-11-24T01:55:09.141Z,90.30
2022-11-24T01:57:42.491Z,83.78
2022-11-24T02:00:13.679Z,82.53
2022-11-24T02:02:44.128Z,87.28
2022-11-24T02:05:22.175Z,83.80
2022-11-24T02:07:53.241Z,83.15
2022-11-24T02:10:23.891Z,77.95
2022-11-24T02:12:55.131Z,78.53
2022-11-24T02:15:23.742Z,77.00
2022-11-24T02:17:51.675Z,80.38
2022-11-24T02:20:19.423Z,80.70
2022-11-24T02:23:01.306Z,66.28
2022-11-24T02:25:42.875Z,74.85
2022-11-24T02:28:15.803Z,71.32
2022-11-24T02:30:44.009Z,72.90
2022-11-24T02:33:13.608Z,66.72
2022-11-24T02:35:41.412Z,73.63
2022-11-24T02:38:14.078Z,73.05
2022-11-24T02:40:47.591Z,70.78
2022-11-24T02:43:21.191Z,80.15
2022-11-24T02:45:49.057Z,76.05
2022-11-24T02:48:18.001Z,81.18
2022-11-24T02:50:45.936Z,71.93
2022-11-24T02:53:14.094Z,72.65
2022-11-24T02:55:41.857Z,72.80
2022-11-24T02:58:09.740Z,71.63
2022-11-24T03:00:37.350Z,79.45
2022-11-24T03:03:05.598Z,75.28
2022-11-24T03:05:33.397Z,75.00
2022-11-24T03:08:01.337Z,66.75
2022-11-24T03:10:29.446Z,72.40
2022-11-24T03:12:57.668Z,70.80
2022-11-24T03:15:25.545Z,72.38
2022-11-24T03:17:56.863Z,68.45
2022-11-24T03:20:25.041Z,67.85
2022-11-24T03:22:53.490Z,71.90
2022-11-24T03:25:21.344Z,67.20
2022-11-24T03:27:49.229Z,61.75
2022-11-24T03:30:17.255Z,68.97
2022-11-24T03:32:45.661Z,65.95
2022-11-24T03:35:13.537Z,65.32
2022-11-24T03:37:41.501Z,65.00
2022-11-24T03:40:10.117Z,61.15
2022-11-24T03:42:38.431Z,62.45
2022-11-24T03:47:55.422Z,58.40
2022-11-24T03:50:23.025Z,61.45
2022-11-24T03:52:51.146Z,56.78
2022-11-24T03:55:18.895Z,55.03
2022-11-24T03:57:46.821Z,54.85
2022-11-24T04:00:15.069Z,53.10
2022-11-24T04:02:43.179Z,55.28
2022-11-24T04:05:11.222Z,53.95
2022-11-24T04:07:39.100Z,55.83
2022-11-24T04:10:07.480Z,54.30
2022-11-24T04:12:44.246Z,56.38
2022-11-24T04:15:20.176Z,53.08
2022-11-24T04:17:49.557Z,48.17
2022-11-24T04:20:17.968Z,54.25
2022-11-24T04:22:46.013Z,54.03
2022-11-24T04:25:13.899Z,51.30
2022-11-24T04:27:42.443Z,51.63
2022-11-24T04:30:10.520Z,49.60
2022-11-24T04:32:38.662Z,54.53
2022-11-24T04:35:06.656Z,54.45
2022-11-24T04:37:35.292Z,52.72
2022-11-24T04:40:03.212Z,51.47
2022-11-24T04:42:31.277Z,47.13
2022-11-24T04:44:58.997Z,50.35
2022-11-24T04:47:28.259Z,52.17
2022-11-24T04:49:56.089Z,49.97
2022-11-24T04:52:25.327Z,49.42
2022-11-24T04:54:53.249Z,50.70
2022-11-24T04:57:24.140Z,50.42
2022-11-24T04:59:52.849Z,52.97
2022-11-24T05:02:21.747Z,58.10
2022-11-24T05:04:49.570Z,56.15
2022-11-24T05:07:19.569Z,57.03
2022-11-24T05:10:01.992Z,58.88
2022-11-24T05:12:31.453Z,62.08
2022-11-24T05:14:59.957Z,53.47
2022-11-24T05:17:32.994Z,49.30
2022-11-24T05:20:00.779Z,55.28
2022-11-24T05:22:30.456Z,80.30
2022-11-24T05:24:58.324Z,103.50
2022-11-24T05:27:26.281Z,73.75
2022-11-24T05:29:54.014Z,63.80
2022-11-24T05:32:22.175Z,63.35
2022-11-24T05:34:49.995Z,60.50
2022-11-24T05:37:18.270Z,61.15
2022-11-24T05:39:46.300Z,60.33
2022-11-24T05:42:28.275Z,59.50
2022-11-24T05:44:56.148Z,62.53
2022-11-24T05:47:24.446Z,59.88
2022-11-24T05:49:52.396Z,55.13
2022-11-24T05:52:20.491Z,55.85
2022-11-24T05:54:48.107Z,57.17
2022-11-24T05:57:17.583Z,65.30
2022-11-24T05:59:45.297Z,68.13
2022-11-24T06:02:14.315Z,71.65
2022-11-24T06:04:41.725Z,60.42
2022-11-24T06:07:11.755Z,62.78
2022-11-24T06:09:41.026Z,59.58
2022-11-24T06:12:10.443Z,62.92
2022-11-24T06:14:38.264Z,69.30
2022-11-24T06:17:06.512Z,64.97
2022-11-24T06:19:37.475Z,65.18
2022-11-24T06:22:09.431Z,65.28
2022-11-24T06:24:37.194Z,71.65
2022-11-24T06:27:05.101Z,69.38
2022-11-24T06:29:32.483Z,67.20
2022-11-24T06:32:00.310Z,67.70
2022-11-24T06:34:27.897Z,64.32
2022-11-24T06:36:55.671Z,75.72
2022-11-24T06:39:22.956Z,71.50
2022-11-24T06:41:51.311Z,57.50
2022-11-24T06:44:19.430Z,66.97
2022-11-24T06:46:47.319Z,63.70
2022-11-24T06:49:14.785Z,54.60
2022-11-24T06:51:42.956Z,61.38
2022-11-24T06:54:15.032Z,59.03
2022-11-24T06:56:43.081Z,55.33
2022-11-24T06:59:18.126Z,57.05
2022-11-24T07:01:47.154Z,54.50
2022-11-24T07:04:15.961Z,51.33
2022-11-24T07:06:44.540Z,55.10
2022-11-24T07:09:13.700Z,56.90
2022-11-24T07:11:44.907Z,49.03
2022-11-24T07:14:12.741Z,53.55
2022-11-24T07:16:40.932Z,52.33
2022-11-24T07:19:11.017Z,57.42
2022-11-24T07:21:38.796Z,50.50
2022-11-24T07:24:06.558Z,51.42
2022-11-24T07:26:37.660Z,46.45
2022-11-24T07:29:05.934Z,48.65
2022-11-24T07:31:33.639Z,52.45
2022-11-24T07:34:01.523Z,46.90
2022-11-24T07:36:29.522Z,52.05
2022-11-24T07:38:57.197Z,47.42
2022-11-24T07:41:25.079Z,47.58
2022-11-24T07:43:53.102Z,49.00
2022-11-24T07:46:21.477Z,56.97
2022-11-24T07:48:48.882Z,42.83
2022-11-24T07:51:16.472Z,48.67
2022-11-24T07:53:45.384Z,50.70
2022-11-24T07:56:13.499Z,46.47
2022-11-24T07:58:41.093Z,46.10
2022-11-24T08:01:18.862Z,41.33
2022-11-24T08:03:47.636Z,52.13
2022-11-24T08:06:27.199Z,42.90
2022-11-24T08:08:58.983Z,43.47
2022-11-24T08:11:27.187Z,45.70
2022-11-24T08:13:54.657Z,43.03
2022-11-24T08:16:22.519Z,42.25
2022-11-24T08:18:51.987Z,43.05
2022-11-24T08:21:20.385Z,48.17
2022-11-24T08:23:47.685Z,46.15
2022-11-24T08:26:18.016Z,45.75
2022-11-24T08:28:46.878Z,45.80
2022-11-24T08:31:19.347Z,47.60
2022-11-24T08:33:47.906Z,48.08
2022-11-24T08:36:18.782Z,47.20
2022-11-24T08:38:47.316Z,49.70
2022-11-24T08:41:16.903Z,49.88
2022-11-24T08:43:44.540Z,43.67
2022-11-24T08:46:17.377Z,48.47
2022-11-24T08:48:52.440Z,47.15
2022-11-24T08:51:22.439Z,41.10
2022-11-24T08:53:53.946Z,41.65
2022-11-24T08:56:21.651Z,43.15
2022-11-24T08:58:49.410Z,38.58
2022-11-24T09:01:18.479Z,37.15
2022-11-24T09:03:51.071Z,43.45
2022-11-24T09:06:23.201Z,38.97
2022-11-24T09:08:52.050Z,36.72
2022-11-24T09:11:19.973Z,38.63
2022-11-24T09:13:48.013Z,43.70
2022-11-24T09:16:21.374Z,37.08
2022-11-24T09:19:05.144Z,38.00
2022-11-24T09:24:08.292Z,39.67
2022-11-24T09:26:40.628Z,36.05
2022-11-24T09:29:11.439Z,33.55
2022-11-24T09:31:39.677Z,37.28
2022-11-24T09:34:09.181Z,34.17
2022-11-24T09:36:37.117Z,31.35
2022-11-24T09:39:04.572Z,39.08
2022-11-24T09:41:50.076Z,32.92
2022-11-24T09:44:27.619Z,29.85
2022-11-24T09:47:14.299Z,31.23
2022-11-24T09:49:55.508Z,33.78
2022-11-24T09:52:47.605Z,33.15
2022-11-24T09:55:24.291Z,30.05
2022-11-24T09:58:03.306Z,32.72
2022-11-24T10:00:31.272Z,31.38
2022-11-24T10:02:59.045Z,26.67
2022-11-24T10:05:30.386Z,32.92
2022-11-24T10:10:49.949Z,30.77
2022-11-24T10:13:38.099Z,28.95
2022-11-24T10:16:26.908Z,30.60
2022-11-24T10:19:22.510Z,26.02
2022-11-24T10:22:02.088Z,26.55
2022-11-24T10:24:37.464Z,25.23
2022-11-24T10:27:18.304Z,31.92
2022-11-24T10:29:52.726Z,30.33
2022-11-24T10:32:37.692Z,35.33
2022-11-24T10:35:19.106Z,32.88
2022-11-24T10:38:00.965Z,33.42
2022-11-24T10:43:26.063Z,42.83
2022-11-24T10:45:55.550Z,36.78
2022-11-24T10:48:26.117Z,37.72
2022-11-24T10:51:14.527Z,33.05
2022-11-24T10:53:43.822Z,30.42
2022-11-24T10:56:11.841Z,30.63
2022-11-24T10:58:39.724Z,22.92
2022-11-24T11:01:13.518Z,22.30
2022-11-24T11:03:53.471Z,22.63
2022-11-24T11:06:26.016Z,18.65
2022-11-24T11:09:13.830Z,21.05
2022-11-24T11:11:42.996Z,27.35
2022-11-24T11:14:13.930Z,23.00
2022-11-24T11:19:55.503Z,24.13
2022-11-24T11:22:29.092Z,22.35
2022-11-24T11:25:11.747Z,22.33
2022-11-24T11:27:41.277Z,23.52
2022-11-24T11:36:26.918Z,21.80
2022-11-24T11:38:54.856Z,24.98
2022-11-24T11:41:30.688Z,22.52
2022-11-24T11:44:17.183Z,24.13
2022-11-24T11:46:45.142Z,22.60
2022-11-24T11:49:13.797Z,24.42
2022-11-24T11:51:56.347Z,25.45
2022-11-24T11:54:30.839Z,24.52
2022-11-24T11:57:01.262Z,28.77
2022-11-24T11:59:51.739Z,28.95
2022-11-24T12:02:59.540Z,25.70
2022-11-24T12:05:46.551Z,27.85
2022-11-24T12:09:11.550Z,28.20
2022-11-24T12:11:48.677Z,21.58
2022-11-24T12:14:39.191Z,23.90
2022-11-24T12:17:39.603Z,28.42
2022-11-24T12:20:24.075Z,32.80
2022-11-24T12:23:28.631Z,27.95
2022-11-24T12:26:00.669Z,25.98
2022-11-24T12:28:38.186Z,31.02
2022-11-24T12:31:20.699Z,28.52
2022-11-24T12:34:26.521Z,30.00
2022-11-24T12:36:54.017Z,30.30
2022-11-24T12:39:30.631Z,26.42
2022-11-24T12:42:14.792Z,24.77
2022-11-24T12:44:57.007Z,21.20
2022-11-24T12:47:53.397Z,21.63
2022-11-24T12:53:18.818Z,21.67
2022-11-24T12:55:47.067Z,23.83
2022-11-24T12:58:18.407Z,24.75
2022-11-24T13:01:03.829Z,28.23
2022-11-24T13:03:44.900Z,27.50
2022-11-24T13:06:24.238Z,28.98
2022-11-24T13:08:52.352Z,23.63
2022-11-24T13:11:22.952Z,25.45
2022-11-24T13:14:00.595Z,25.73
2022-11-24T13:16:36.083Z,23.13
2022-11-24T13:22:06.956Z,23.55
2022-11-24T13:24:37.040Z,20.25
2022-11-24T13:27:16.896Z,25.50
2022-11-24T13:29:49.146Z,22.88
2022-11-24T13:32:21.351Z,27.02
2022-11-24T13:34:55.122Z,26.27
2022-11-24T13:37:31.592Z,26.25
2022-11-24T13:40:12.369Z,26.15
2022-11-24T13:43:03.369Z,25.23
2022-11-24T13:45:40.938Z,23.17
2022-11-24T13:48:22.990Z,24.00
2022-11-24T13:50:57.073Z,26.52
2022-11-24T13:53:36.644Z,29.60
2022-11-24T13:56:21.942Z,27.83
2022-11-24T13:58:57.009Z,25.60
2022-11-24T14:01:31.533Z,19.90
2022-11-24T14:06:52.584Z,31.25
2022-11-24T14:09:32.285Z,30.85
2022-11-24T14:12:11.644Z,31.67
2022-11-24T14:14:40.202Z,31.63
2022-11-24T14:17:20.333Z,33.75
2022-11-24T14:19:53.630Z,32.85
2022-11-24T14:22:22.968Z,31.65
2022-11-24T14:24:58.845Z,30.23
2022-11-24T14:27:32.466Z,28.33
2022-11-24T14:30:03.827Z,24.83
2022-11-24T14:32:31.343Z,24.20
2022-11-24T14:34:59.532Z,24.15
2022-11-24T14:37:27.398Z,23.95
2022-11-24T14:39:55.203Z,26.33
2022-11-24T14:42:25.515Z,25.33
2022-11-24T14:44:59.350Z,29.02
2022-11-24T14:47:36.409Z,31.98
2022-11-24T14:50:30.470Z,32.25
2022-11-24T14:52:58.991Z,50.88
2022-11-24T14:55:39.424Z,48.25
2022-11-24T14:58:27.855Z,50.13
2022-11-24T15:01:18.135Z,48.50
2022-11-24T15:03:46.395Z,50.45
2022-11-24T15:06:19.858Z,55.08
2022-11-24T15:08:49.488Z,57.72
2022-11-24T15:11:17.300Z,55.13
2022-11-24T15:13:54.959Z,50.38
2022-11-24T15:16:25.726Z,49.35
2022-11-24T15:19:01.641Z,46.60
2022-11-24T15:21:37.110Z,50.78
2022-11-24T15:24:07.723Z,47.78
2022-11-24T15:26:41.723Z,50.65
2022-11-24T15:29:12.871Z,48.42
2022-11-24T15:31:41.883Z,55.80
2022-11-24T15:34:14.553Z,48.60
2022-11-24T15:36:42.406Z,45.63
2022-11-24T15:39:09.851Z,46.65
2022-11-24T15:41:37.372Z,45.78
2022-11-24T15:44:05.202Z,46.72
2022-11-24T15:46:38.400Z,53.28
2022-11-24T15:49:06.835Z,54.45
2022-11-24T15:51:35.900Z,46.53
2022-11-24T15:54:03.677Z,46.55
2022-11-24T15:56:35.162Z,55.72
2022-11-24T15:59:03.237Z,48.35
2022-11-24T16:01:32.787Z,39.28
2022-11-24T16:04:01.559Z,42.50
2022-11-24T16:06:29.328Z,50.00
2022-11-24T16:08:58.197Z,48.88
2022-11-24T16:11:26.261Z,51.25
2022-11-24T16:13:54.581Z,39.47
2022-11-24T16:16:24.996Z,46.20
2022-11-24T16:18:53.047Z,47.75
2022-11-24T16:21:21.100Z,49.83
2022-11-24T16:23:48.877Z,52.78
2022-11-24T16:26:17.061Z,55.95
2022-11-24T16:28:46.110Z,66.43
2022-11-24T16:31:16.491Z,67.88
2022-11-24T16:33:46.472Z,75.95
2022-11-24T16:36:14.888Z,87.70
2022-11-24T16:38:42.304Z,78.00
2022-11-24T16:41:10.714Z,88.28
2022-11-24T16:43:39.080Z,91.95
2022-11-24T16:46:17.513Z,99.57
2022-11-24T16:48:47.056Z,110.93
2022-11-24T16:51:15.398Z,105.88
2022-11-24T16:53:43.200Z,88.85
2022-11-24T16:56:11.741Z,88.03
2022-11-24T16:58:40.978Z,87.93
2022-11-24T17:01:11.108Z,80.05
2022-11-24T17:03:39.357Z,113.50
2022-11-24T17:06:09.702Z,97.78
2022-11-24T17:08:40.097Z,74.65
2022-11-24T17:11:18.128Z,59.88
2022-11-24T17:13:47.465Z,58.70
2022-11-24T17:16:17.873Z,60.22
2022-11-24T17:18:45.916Z,65.35
2022-11-24T17:21:16.721Z,88.60
2022-11-24T17:23:44.318Z,100.30
2022-11-24T17:26:14.730Z,115.03
2022-11-24T17:28:42.800Z,92.65
2022-11-24T17:31:26.601Z,107.85
2022-11-24T17:33:56.895Z,86.15
2022-11-24T17:36:25.379Z,105.70
2022-11-24T17:38:53.562Z,139.13
2022-11-24T17:41:22.276Z,147.57
2022-11-24T17:43:56.074Z,130.25
2022-11-24T17:46:28.388Z,70.95
2022-11-24T17:48:56.498Z,37.00
2022-11-24T17:51:26.118Z,29.58
2022-11-24T17:53:55.215Z,29.23
2022-11-24T17:56:25.174Z,29.67
2022-11-24T17:58:55.423Z,29.05
2022-11-24T18:01:24.550Z,25.55
2022-11-24T18:03:53.762Z,22.80
2022-11-24T18:06:25.237Z,21.55
2022-11-24T18:08:54.307Z,18.25
2022-11-24T18:11:30.460Z,14.98
2022-11-24T18:14:02.652Z,17.02
2022-11-24T18:16:34.818Z,11.88
2022-11-24T18:19:09.307Z,15.40
2022-11-24T18:21:41.718Z,12.43
2022-11-24T18:24:11.276Z,12.38
2022-11-24T18:26:43.043Z,11.77
2022-11-24T18:29:11.722Z,10.60
2022-11-24T18:31:40.164Z,9.20
2022-11-24T18:34:08.047Z,9.07
2022-11-24T18:36:36.053Z,9.38
2022-11-24T18:39:06.137Z,7.22
2022-11-24T18:41:34.307Z,9.57
2022-11-24T18:44:03.283Z,10.02
2022-11-24T18:46:30.836Z,11.30
2022-11-24T18:48:59.482Z,8.50
2022-11-24T18:51:27.387Z,11.70
2022-11-24T18:53:55.563Z,11.15
2022-11-24T18:56:22.895Z,11.80
2022-11-24T18:58:55.308Z,54.30
2022-11-24T19:01:30.257Z,23.38
2022-11-24T19:04:00.834Z,18.38
2022-11-24T19:06:39.149Z,16.73
2022-11-24T19:09:11.404Z,14.65
2022-11-24T19:11:40.819Z,12.23
2022-11-24T19:14:12.158Z,46.42
2022-11-24T19:16:40.906Z,56.17
2022-11-24T19:19:10.350Z,49.65
2022-11-24T19:21:39.680Z,50.17
2022-11-24T19:24:12.069Z,56.63
2022-11-24T19:26:40.301Z,63.92
2022-11-24T19:29:08.663Z,61.38
2022-11-24T19:31:38.684Z,60.65
2022-11-24T19:34:08.421Z,48.50
2022-11-24T19:36:36.628Z,55.28
2022-11-24T19:39:05.478Z,57.85
2022-11-24T19:41:34.396Z,54.05
2022-11-24T19:44:02.329Z,53.58
2022-11-24T19:46:30.248Z,51.97
2022-11-24T19:49:02.886Z,53.13
2022-11-24T19:51:33.558Z,57.90
2022-11-24T19:54:02.477Z,55.17
2022-11-24T19:56:32.240Z,65.90
2022-11-24T19:59:00.532Z,61.30
2022-11-24T20:01:31.083Z,63.75
2022-11-24T20:04:02.105Z,62.83
2022-11-24T20:06:32.608Z,55.58
2022-11-24T20:09:01.381Z,55.90
2022-11-24T20:11:29.890Z,57.58
2022-11-24T20:13:58.293Z,52.67
2022-11-24T20:16:30.902Z,50.63
2022-11-24T20:19:05.891Z,50.83
2022-11-24T20:21:35.883Z,49.97
2022-11-24T20:24:05.426Z,37.92
2022-11-24T20:26:42.098Z,30.55
2022-11-24T20:29:14.493Z,24.08
2022-11-24T20:31:44.991Z,23.73
2022-11-24T20:34:13.770Z,24.25
2022-11-24T20:36:42.975Z,21.70
2022-11-24T20:39:24.159Z,18.17
2022-11-24T20:41:52.341Z,20.10
2022-11-24T20:44:22.243Z,19.00
2022-11-24T20:46:50.410Z,14.02
2022-11-24T20:49:20.623Z,18.05
2022-11-24T20:51:48.582Z,13.57
2022-11-24T20:54:18.058Z,13.32
2022-11-24T20:56:46.805Z,10.30
2022-11-24T20:59:18.128Z,9.95
2022-11-24T21:04:21.942Z,9.57
2022-11-24T21:06:49.829Z,9.23
2022-11-24T21:09:17.801Z,11.13
2022-11-24T21:11:45.542Z,8.65
2022-11-24T21:14:14.059Z,11.52
2022-11-24T21:16:42.973Z,12.20
2022-11-24T21:19:13.657Z,7.15
2022-11-24T21:21:43.150Z,6.35
2022-11-24T21:24:13.894Z,7.97
2022-11-24T21:26:42.576Z,8.73
2022-11-24T21:29:13.332Z,8.35
2022-11-24T21:31:41.685Z,9.27
2022-11-24T21:34:09.999Z,8.70
2022-11-24T21:36:41.011Z,7.63
2022-11-24T21:39:12.415Z,7.80
2022-11-24T21:41:40.564Z,4.90
2022-11-24T21:44:08.953Z,4.68
2022-11-24T21:46:43.620Z,4.65
2022-11-24T21:49:13.593Z,3.25
2022-11-24T21:51:41.114Z,2.78
2022-11-24T21:54:09.038Z,1.80
2022-11-24T21:56:36.590Z,3.10
2022-11-24T21:59:04.230Z,3.33
2022-11-24T22:01:31.987Z,2.10
2022-11-24T22:03:59.963Z,2.55
2022-11-24T22:06:27.738Z,3.03
2022-11-24T22:08:55.708Z,5.28
2022-11-24T22:11:25.419Z,4.57
2022-11-24T22:13:53.263Z,3.03
2022-11-24T22:16:23.330Z,2.75
2022-11-24T22:18:51.922Z,3.80
2022-11-24T22:21:29.578Z,5.00
2022-11-24T22:23:57.652Z,6.70
2022-11-24T22:26:26.128Z,4.43
2022-11-24T22:28:55.053Z,5.55
2022-11-24T22:31:25.197Z,5.53
2022-11-24T22:33:54.666Z,5.85
2022-11-24T22:36:24.167Z,7.65
2022-11-24T22:38:56.683Z,5.57
2022-11-24T22:41:24.986Z,4.93
2022-11-24T22:43:53.736Z,5.20
2022-11-24T22:46:26.218Z,6.10
2022-11-24T22:48:55.216Z,5.32
2022-11-24T22:51:26.228Z,5.43
2022-11-24T22:53:56.666Z,5.53
2022-11-24T22:56:25.309Z,3.05
2022-11-24T22:58:52.889Z,5.53
2022-11-24T23:01:22.980Z,4.35
2022-11-24T23:03:54.441Z,3.63
2022-11-24T23:06:24.686Z,3.50
2022-11-24T23:08:53.154Z,4.82
2022-11-24T23:11:29.058Z,3.92
2022-11-24T23:14:03.536Z,2.45
2022-11-24T23:16:31.275Z,4.45
2022-11-24T23:18:59.029Z,3.10
2022-11-24T23:21:32.005Z,3.30
2022-11-24T23:24:02.398Z,2.88
2022-11-24T23:26:32.890Z,2.90
2022-11-24T23:29:01.057Z,3.28
2022-11-24T23:31:29.342Z,5.00
2022-11-24T23:34:02.360Z,5.03
2022-11-24T23:36:31.102Z,5.50
2022-11-24T23:39:08.775Z,3.05
2022-11-24T23:44:03.842Z,6.18
2022-11-24T23:46:31.741Z,8.90
2022-11-24T23:48:59.872Z,9.00
2022-11-24T23:51:29.545Z,7.38
2022-11-24T23:56:39.214Z,8.85
2022-11-24T23:59:06.712Z,6.45
